Time;durP1;ratioP1;P1;durP2;ratioP2;P2;SDS_P1;SDS_P2;PMS_P1;PMS_P2;Temp;Humidity;BMP_temperature;BMP_pressure;BME280_temperature;BME280_humidity;BME280_pressure;Samples;Min_cycle;Max_cycle;Signal;HPM_P1;HPM_P2
2023/09/12 00:00:50;;;;;;;6.68;4.82;;;21.70;99.90;;;;;;5000544;28;20204;-80
2023/09/12 00:03:20;;;;;;;11.48;5.88;;;21.70;99.90;;;;;;4999824;28;20176;-80
2023/09/12 00:05:56;;;;;;;10.45;5.35;;;21.60;99.90;;;;;;5000552;28;20233;-80
2023/09/12 00:08:22;;;;;;;7.28;5.05;;;21.50;99.90;;;;;;5000640;28;20262;-81
2023/09/12 00:11:13;;;;;;;7.00;4.80;;;21.50;99.90;;;;;;5017881;28;20550;-79
2023/09/12 00:13:40;;;;;;;6.85;4.85;;;21.40;99.90;;;;;;5000223;28;20193;-80
2023/09/12 00:16:09;;;;;;;8.30;5.28;;;21.40;99.90;;;;;;4999701;28;20183;-80
2023/09/12 00:18:35;;;;;;;6.60;5.10;;;21.30;99.90;;;;;;5000289;28;20180;-80
2023/09/12 00:21:01;;;;;;;7.15;5.72;;;21.20;99.90;;;;;;4999604;28;20295;-80
2023/09/12 00:23:27;;;;;;;11.05;5.85;;;21.10;99.90;;;;;;5017824;28;20172;-80
2023/09/12 00:25:53;;;;;;;6.93;4.97;;;21.10;99.90;;;;;;5017599;28;20225;-80
2023/09/12 00:28:19;;;;;;;7.38;4.85;;;21.10;99.90;;;;;;4999708;28;20283;-81
2023/09/12 00:30:45;;;;;;;8.38;5.13;;;21.00;99.90;;;;;;4999708;28;20271;-81
2023/09/12 00:33:11;;;;;;;7.72;5.05;;;21.00;99.90;;;;;;4999540;28;20265;-79
2023/09/12 00:35:37;;;;;;;7.35;4.93;;;21.00;99.90;;;;;;5018131;28;20257;-80
2023/09/12 00:38:02;;;;;;;7.65;4.75;;;20.90;99.90;;;;;;4999970;28;20200;-81
2023/09/12 00:40:29;;;;;;;7.22;5.07;;;20.90;99.90;;;;;;5018214;28;20574;-81
2023/09/12 00:42:55;;;;;;;7.45;6.15;;;20.90;99.90;;;;;;5000426;28;20255;-80
2023/09/12 00:45:21;;;;;;;8.35;5.07;;;20.80;99.90;;;;;;5017328;28;20164;-81
2023/09/12 00:47:47;;;;;;;7.78;5.07;;;20.70;99.90;;;;;;4999913;28;20200;-79
2023/09/12 00:50:16;;;;;;;7.63;5.25;;;20.70;99.90;;;;;;5017372;28;20255;-80
2023/09/12 00:52:42;;;;;;;5.43;4.40;;;20.70;99.90;;;;;;5000397;28;20179;-81
2023/09/12 00:55:08;;;;;;;7.13;3.53;;;20.70;99.90;;;;;;5000031;28;20184;-80
2023/09/12 00:57:35;;;;;;;5.13;3.92;;;20.80;99.90;;;;;;5018150;28;20200;-80
2023/09/12 01:00:10;;;;;;;6.10;3.90;;;20.70;99.90;;;;;;5017959;28;20282;-81
2023/09/12 01:02:46;;;;;;;6.10;4.00;;;20.70;99.90;;;;;;5017658;28;20160;-80
2023/09/12 01:05:14;;;;;;;4.72;3.33;;;20.70;99.90;;;;;;5000511;28;20198;-80
2023/09/12 01:07:43;;;;;;;4.55;3.47;;;20.70;99.90;;;;;;5003522;28;20680;-79
2023/09/12 01:10:10;;;;;;;7.35;3.60;;;20.60;99.90;;;;;;5021184;28;20203;-80
2023/09/12 01:12:36;;;;;;;4.38;3.38;;;20.60;99.90;;;;;;5004218;28;20180;-80
2023/09/12 01:15:05;;;;;;;6.18;3.90;;;20.60;99.90;;;;;;5021810;28;20562;-80
2023/09/12 01:17:31;;;;;;;5.10;3.78;;;20.60;99.90;;;;;;5003201;28;20210;-79
2023/09/12 01:19:58;;;;;;;10.25;4.43;;;20.60;99.90;;;;;;5020946;28;20200;-80
2023/09/12 01:22:56;;;;;;;7.57;4.40;;;20.50;99.90;;;;;;5004355;28;20218;-80
2023/09/12 01:25:42;;;;;;;5.53;3.88;;;20.40;99.90;;;;;;4977801;28;20184;-80
2023/09/12 01:28:10;;;;;;;4.75;4.00;;;20.40;99.90;;;;;;5021589;28;20202;-81
2023/09/12 01:30:38;;;;;;;6.47;4.28;;;20.30;99.90;;;;;;5021339;28;20202;-80
2023/09/12 01:33:03;;;;;;;6.10;4.90;;;20.30;99.90;;;;;;5003622;28;20185;-80
2023/09/12 01:35:29;;;;;;;9.85;5.32;;;20.30;99.90;;;;;;5021222;28;20191;-80
2023/09/12 01:37:55;;;;;;;7.35;4.57;;;20.20;99.90;;;;;;5003566;28;20736;-80
2023/09/12 01:40:31;;;;;;;5.85;4.43;;;20.30;99.90;;;;;;5003337;28;20208;-80
2023/09/12 01:43:00;;;;;;;7.72;4.45;;;20.20;99.90;;;;;;5003609;28;20235;-80
2023/09/12 01:45:27;;;;;;;4.88;3.85;;;20.20;99.90;;;;;;5021073;28;20168;-81
2023/09/12 01:47:54;;;;;;;6.47;4.68;;;20.20;99.90;;;;;;5020561;28;20195;-80
2023/09/12 01:50:20;;;;;;;7.63;4.72;;;20.30;99.90;;;;;;5003282;28;20206;-80
2023/09/12 01:52:47;;;;;;;10.02;5.15;;;20.20;99.90;;;;;;5020849;28;20667;-80
2023/09/12 01:55:14;;;;;;;10.38;5.72;;;20.30;99.90;;;;;;5003333;28;20190;-80
2023/09/12 01:57:40;;;;;;;9.80;6.68;;;20.20;99.90;;;;;;5003547;28;20199;-80
2023/09/12 02:00:07;;;;;;;9.95;7.05;;;20.20;99.90;;;;;;5003903;28;20210;-80
2023/09/12 02:02:33;;;;;;;9.25;7.22;;;20.10;99.90;;;;;;5003369;28;20243;-79
2023/09/12 02:05:28;;;;;;;10.13;7.65;;;20.10;99.90;;;;;;5004005;28;20214;-80
2023/09/12 02:07:53;;;;;;;10.75;7.85;;;20.00;99.90;;;;;;5003989;28;20207;-80
2023/09/12 02:10:19;;;;;;;11.07;7.45;;;20.00;99.90;;;;;;5021767;28;20243;-80
2023/09/12 02:12:45;;;;;;;10.77;7.97;;;20.00;99.90;;;;;;5004484;28;20176;-80
2023/09/12 02:15:12;;;;;;;9.10;7.25;;;20.00;99.90;;;;;;5021968;28;20663;-80
2023/09/12 02:17:38;;;;;;;10.05;7.38;;;20.00;99.90;;;;;;5000485;28;20207;-81
2023/09/12 02:20:08;;;;;;;9.68;8.00;;;20.00;99.90;;;;;;5002569;28;20567;-80
2023/09/12 02:22:34;;;;;;;12.18;8.50;;;19.90;99.90;;;;;;5019727;28;20667;-80
2023/09/12 02:25:00;;;;;;;10.38;8.10;;;19.90;99.90;;;;;;5001978;28;20179;-80
2023/09/12 02:27:26;;;;;;;11.80;8.13;;;19.80;99.90;;;;;;5002070;28;20204;-80
2023/09/12 02:29:51;;;;;;;9.40;8.32;;;19.80;99.90;;;;;;5019622;28;20199;-80
2023/09/12 02:32:17;;;;;;;10.73;8.32;;;19.80;99.90;;;;;;5019942;28;20176;-80
2023/09/12 02:34:43;;;;;;;9.45;6.45;;;19.80;99.90;;;;;;5019805;28;20550;-79
2023/09/12 02:37:08;;;;;;;8.75;7.57;;;19.70;99.90;;;;;;5001843;28;20196;-80
2023/09/12 02:39:34;;;;;;;10.85;7.68;;;19.70;99.90;;;;;;5014512;28;20219;-79
2023/09/12 02:42:00;;;;;;;12.10;7.72;;;19.70;99.90;;;;;;4982284;28;20176;-80
2023/09/12 02:44:25;;;;;;;9.48;6.30;;;19.80;99.90;;;;;;5000153;28;20172;-80
2023/09/12 02:46:51;;;;;;;10.07;7.32;;;19.80;99.90;;;;;;4999890;28;20764;-81
2023/09/12 02:49:17;;;;;;;10.75;6.68;;;19.80;99.90;;;;;;4982568;28;20181;-79
2023/09/12 02:51:43;;;;;;;7.93;6.35;;;19.80;99.90;;;;;;5000026;28;20169;-80
2023/09/12 02:54:08;;;;;;;10.10;6.63;;;19.80;99.90;;;;;;4984412;28;20555;-80
2023/09/12 02:56:34;;;;;;;10.50;6.88;;;19.80;99.90;;;;;;5000210;28;20195;-80
2023/09/12 02:59:00;;;;;;;10.07;7.50;;;19.70;99.90;;;;;;4982279;28;20637;-80
2023/09/12 03:01:27;;;;;;;9.68;7.30;;;19.60;99.90;;;;;;4982408;28;20734;-81
2023/09/12 03:03:54;;;;;;;9.50;7.57;;;19.60;99.90;;;;;;4998788;28;20177;-79
2023/09/12 03:06:20;;;;;;;8.07;7.18;;;19.50;99.90;;;;;;5000040;28;20199;-80
2023/09/12 03:08:47;;;;;;;9.95;8.02;;;19.50;99.90;;;;;;4982081;28;20176;-80
2023/09/12 03:11:13;;;;;;;10.48;7.43;;;19.40;99.90;;;;;;5000174;28;20188;-79
2023/09/12 03:13:41;;;;;;;11.30;8.13;;;19.40;99.90;;;;;;5001112;28;20206;-80
2023/09/12 03:16:11;;;;;;;12.95;9.43;;;19.40;99.90;;;;;;5001238;28;20183;-79
2023/09/12 03:18:37;;;;;;;10.63;8.60;;;19.40;99.90;;;;;;5018908;28;20199;-80
2023/09/12 03:21:03;;;;;;;12.23;9.00;;;19.30;99.90;;;;;;5019052;28;20210;-80
2023/09/12 03:23:28;;;;;;;13.45;9.73;;;19.40;99.90;;;;;;5001281;28;20609;-80
2023/09/12 03:25:54;;;;;;;13.27;10.05;;;19.40;99.90;;;;;;5001069;28;20640;-80
2023/09/12 03:28:20;;;;;;;14.55;10.80;;;19.30;99.90;;;;;;5018340;28;20303;-80
2023/09/12 03:30:46;;;;;;;15.13;11.02;;;19.30;99.90;;;;;;5000571;28;20206;-80
2023/09/12 03:33:11;;;;;;;17.75;12.10;;;19.40;99.90;;;;;;5000786;28;20186;-79
2023/09/12 03:35:37;;;;;;;16.40;11.77;;;19.50;99.90;;;;;;5018123;28;20176;-80
2023/09/12 03:38:03;;;;;;;17.33;11.90;;;19.50;99.90;;;;;;5000778;28;20265;-80
2023/09/12 03:40:33;;;;;;;14.60;11.23;;;19.40;99.90;;;;;;5000624;28;20207;-79
2023/09/12 03:42:59;;;;;;;16.08;12.20;;;19.40;99.90;;;;;;5000846;28;20674;-80
2023/09/12 03:45:24;;;;;;;17.48;11.95;;;19.50;99.90;;;;;;5000201;28;20262;-80
2023/09/12 03:47:51;;;;;;;16.98;12.10;;;19.50;99.90;;;;;;5000104;28;20223;-79
2023/09/12 03:50:17;;;;;;;19.02;12.75;;;19.50;99.90;;;;;;5000488;28;20194;-79
2023/09/12 03:52:43;;;;;;;15.65;11.48;;;19.50;99.90;;;;;;5000930;28;20175;-80
2023/09/12 03:55:09;;;;;;;16.13;12.43;;;19.50;99.90;;;;;;5018572;28;20171;-80
2023/09/12 03:57:35;;;;;;;16.02;11.88;;;19.50;99.90;;;;;;5000575;28;20207;-80
2023/09/12 04:00:03;;;;;;;16.15;12.57;;;19.50;99.90;;;;;;4999820;28;20204;-80
2023/09/12 04:02:29;;;;;;;18.15;13.23;;;19.50;99.90;;;;;;4999500;28;20180;-80
2023/09/12 04:04:59;;;;;;;21.20;14.45;;;19.50;99.90;;;;;;5016340;28;20199;-79
2023/09/12 04:07:24;;;;;;;21.90;14.05;;;19.50;99.90;;;;;;5016996;28;20206;-80
2023/09/12 04:09:50;;;;;;;23.38;15.20;;;19.40;99.90;;;;;;4998988;28;20183;-79
2023/09/12 04:12:16;;;;;;;19.98;15.00;;;19.30;99.90;;;;;;5017972;28;20175;-80
2023/09/12 04:14:41;;;;;;;24.08;16.38;;;19.30;99.90;;;;;;5017466;28;20210;-80
2023/09/12 04:17:08;;;;;;;26.92;18.48;;;19.20;99.90;;;;;;5002329;28;20364;-79
2023/09/12 04:19:33;;;;;;;27.55;19.27;;;19.20;99.90;;;;;;5000274;28;20184;-80
2023/09/12 04:21:59;;;;;;;26.38;18.98;;;19.20;99.90;;;;;;4999958;28;20771;-80
2023/09/12 04:24:25;;;;;;;24.90;17.63;;;19.20;99.90;;;;;;5001641;28;20271;-80
2023/09/12 04:26:51;;;;;;;29.60;19.67;;;19.10;99.90;;;;;;5000457;28;20199;-80
2023/09/12 04:29:17;;;;;;;28.33;20.00;;;19.10;99.90;;;;;;5017701;28;20192;-80
2023/09/12 04:31:43;;;;;;;30.73;20.98;;;19.10;99.90;;;;;;4999657;28;20260;-80
2023/09/12 04:34:08;;;;;;;26.58;19.55;;;19.10;99.90;;;;;;5017431;28;20172;-79
2023/09/12 04:36:34;;;;;;;25.50;19.50;;;19.10;99.90;;;;;;4998790;28;20575;-80
2023/09/12 04:39:00;;;;;;;26.10;18.67;;;19.10;99.90;;;;;;5017474;28;20568;-79
2023/09/12 04:41:26;;;;;;;25.77;17.60;;;19.10;99.90;;;;;;5002064;28;20294;-79
2023/09/12 04:43:51;;;;;;;31.17;19.48;;;19.10;99.90;;;;;;5002944;28;20179;-79
2023/09/12 04:46:17;;;;;;;23.63;18.13;;;19.10;99.90;;;;;;5003337;28;20277;-80
2023/09/12 04:48:43;;;;;;;28.50;19.00;;;19.10;99.90;;;;;;5002841;28;20175;-79
2023/09/12 04:51:09;;;;;;;28.67;20.08;;;19.10;99.90;;;;;;5020196;28;20254;-80
2023/09/12 04:53:35;;;;;;;25.35;16.88;;;19.10;99.90;;;;;;5003037;28;20257;-81
2023/09/12 04:56:02;;;;;;;26.00;18.95;;;19.10;99.90;;;;;;5020961;28;20221;-80
2023/09/12 04:58:28;;;;;;;26.02;19.92;;;19.10;99.90;;;;;;5021169;28;20715;-80
2023/09/12 05:00:55;;;;;;;26.95;19.10;;;19.10;99.90;;;;;;5004126;28;20208;-80
2023/09/12 05:03:21;;;;;;;24.27;17.58;;;19.00;99.90;;;;;;5003442;28;20191;-79
2023/09/12 05:05:48;;;;;;;28.02;18.17;;;19.00;99.90;;;;;;5021065;28;20211;-80
2023/09/12 05:08:14;;;;;;;26.42;18.55;;;19.10;99.90;;;;;;5021026;28;20196;-80
2023/09/12 05:10:39;;;;;;;27.10;19.38;;;19.10;99.90;;;;;;5003091;28;20183;-81
2023/09/12 05:13:06;;;;;;;27.60;19.80;;;19.10;99.90;;;;;;5022109;28;20255;-80
2023/09/12 05:15:31;;;;;;;24.05;17.27;;;19.10;99.90;;;;;;5002153;28;20180;-80
2023/09/12 05:17:57;;;;;;;24.02;16.75;;;19.10;99.90;;;;;;5000915;28;20200;-79
2023/09/12 05:20:23;;;;;;;21.88;15.93;;;19.10;99.90;;;;;;5001227;28;20231;-80
2023/09/12 05:22:49;;;;;;;23.42;16.70;;;19.10;99.90;;;;;;5001280;28;20233;-80
2023/09/12 05:25:15;;;;;;;20.25;15.85;;;19.10;99.90;;;;;;5001330;28;20183;-80
2023/09/12 05:27:40;;;;;;;19.65;14.95;;;19.10;99.90;;;;;;5001212;28;20234;-80
2023/09/12 05:30:06;;;;;;;19.73;15.15;;;19.10;99.90;;;;;;5002393;28;20206;-79
2023/09/12 05:32:32;;;;;;;19.73;13.50;;;19.10;99.90;;;;;;5001270;28;20183;-80
2023/09/12 05:34:58;;;;;;;18.65;13.68;;;19.10;99.90;;;;;;5018129;28;20186;-80
2023/09/12 05:37:24;;;;;;;23.88;13.82;;;19.10;99.90;;;;;;5001292;28;20200;-80
2023/09/12 05:39:50;;;;;;;15.48;11.57;;;19.10;99.90;;;;;;5020340;28;20215;-79
2023/09/12 05:42:20;;;;;;;15.60;12.10;;;19.10;99.90;;;;;;5003303;28;20175;-80
2023/09/12 05:44:47;;;;;;;20.60;12.88;;;19.20;99.90;;;;;;5003086;28;20255;-80
2023/09/12 05:47:13;;;;;;;16.63;12.95;;;19.20;99.90;;;;;;5003227;28;20207;-80
2023/09/12 05:49:38;;;;;;;15.50;10.82;;;19.20;99.90;;;;;;5003491;28;20184;-79
2023/09/12 05:52:05;;;;;;;15.23;11.93;;;19.20;99.90;;;;;;5002070;28;20171;-79
2023/09/12 05:54:31;;;;;;;14.68;12.18;;;19.20;99.90;;;;;;5003663;28;20179;-80
2023/09/12 05:56:57;;;;;;;16.83;11.65;;;19.30;99.90;;;;;;5003960;28;20195;-80
2023/09/12 05:59:22;;;;;;;16.73;12.68;;;19.30;99.90;;;;;;5003816;28;20195;-80
2023/09/12 06:01:48;;;;;;;17.48;11.90;;;19.30;99.90;;;;;;5002920;28;20605;-80
2023/09/12 06:04:14;;;;;;;16.85;12.68;;;19.40;99.90;;;;;;5001062;28;20187;-79
2023/09/12 06:06:40;;;;;;;18.50;13.20;;;19.40;99.90;;;;;;5002033;28;20196;-80
2023/09/12 06:09:06;;;;;;;19.23;13.98;;;19.40;99.90;;;;;;5001389;28;20670;-79
2023/09/12 06:11:32;;;;;;;19.58;12.70;;;19.40;99.90;;;;;;5001875;28;20183;-81
2023/09/12 06:13:58;;;;;;;14.75;11.52;;;19.40;99.90;;;;;;5019898;28;20195;-80
2023/09/12 06:16:24;;;;;;;13.05;11.43;;;19.50;99.90;;;;;;5002182;28;20200;-80
2023/09/12 06:18:49;;;;;;;16.75;12.55;;;19.60;99.90;;;;;;5003958;28;20194;-79
2023/09/12 06:21:15;;;;;;;16.23;12.10;;;19.60;99.90;;;;;;5004100;28;20203;-80
2023/09/12 06:23:41;;;;;;;16.70;13.50;;;19.70;99.90;;;;;;5022100;28;20168;-80
2023/09/12 06:26:07;;;;;;;17.13;13.63;;;19.70;99.90;;;;;;5001399;28;20274;-80
2023/09/12 06:28:32;;;;;;;18.60;13.23;;;19.70;99.90;;;;;;5018654;28;20179;-80
2023/09/12 06:30:58;;;;;;;19.23;13.25;;;19.70;99.90;;;;;;5018181;28;20210;-79
2023/09/12 06:33:28;;;;;;;17.92;13.23;;;19.70;99.90;;;;;;5000199;28;20190;-79
2023/09/12 06:35:54;;;;;;;16.75;13.48;;;19.70;99.90;;;;;;5000525;28;20182;-80
2023/09/12 06:38:21;;;;;;;19.50;13.00;;;19.70;99.90;;;;;;5000517;28;20206;-80
2023/09/12 06:40:47;;;;;;;17.63;14.00;;;19.60;99.90;;;;;;5000130;28;20741;-79
2023/09/12 06:43:14;;;;;;;29.60;16.38;;;19.60;99.90;;;;;;5017390;28;20180;-79
2023/09/12 06:45:43;;;;;;;27.15;16.75;;;19.50;99.90;;;;;;5000731;28;20179;-80
2023/09/12 06:48:09;;;;;;;32.53;19.10;;;19.40;99.90;;;;;;5018538;28;20202;-80
2023/09/12 06:50:37;;;;;;;33.42;21.00;;;19.30;99.90;;;;;;5001448;28;20187;-80
2023/09/12 06:53:04;;;;;;;33.45;20.33;;;19.00;99.90;;;;;;5019745;28;20168;-79
2023/09/12 06:55:30;;;;;;;35.80;21.40;;;18.90;99.90;;;;;;5001372;28;20190;-80
2023/09/12 06:57:55;;;;;;;30.83;20.30;;;18.70;99.90;;;;;;5019448;28;20270;-80
2023/09/12 07:00:21;;;;;;;29.27;19.92;;;18.70;99.90;;;;;;5001255;28;20705;-79
2023/09/12 07:02:47;;;;;;;30.52;21.40;;;18.60;99.90;;;;;;5001764;28;20640;-80
2023/09/12 07:05:13;;;;;;;33.60;20.33;;;18.60;99.90;;;;;;5001631;28;20675;-79
2023/09/12 07:07:38;;;;;;;37.67;23.60;;;18.50;99.90;;;;;;5016488;28;20196;-78
2023/09/12 07:10:06;;;;;;;37.05;21.48;;;18.50;99.90;;;;;;4997686;28;20248;-78
2023/09/12 07:12:32;;;;;;;39.72;23.98;;;18.50;99.90;;;;;;4997315;28;20214;-78
2023/09/12 07:14:58;;;;;;;35.90;22.20;;;18.40;99.90;;;;;;5015130;28;20663;-78
2023/09/12 07:17:27;;;;;;;33.45;20.90;;;18.30;99.90;;;;;;4997646;28;20207;-77
2023/09/12 07:19:56;;;;;;;29.35;21.83;;;18.30;99.90;;;;;;4997952;28;20294;-77
2023/09/12 07:22:22;;;;;;;32.08;23.48;;;18.20;99.90;;;;;;5015468;28;20583;-77
2023/09/12 07:24:48;;;;;;;38.10;25.08;;;18.20;99.90;;;;;;4997934;28;20180;-78
2023/09/12 07:27:14;;;;;;;37.95;23.73;;;18.20;99.90;;;;;;4998343;28;20199;-78
2023/09/12 07:29:40;;;;;;;41.28;27.27;;;18.20;99.90;;;;;;4998986;28;20224;-78
2023/09/12 07:32:06;;;;;;;43.85;26.65;;;18.20;99.90;;;;;;4997119;28;20298;-78
2023/09/12 07:34:32;;;;;;;40.15;27.35;;;18.20;99.90;;;;;;5015032;28;20593;-78
2023/09/12 07:36:58;;;;;;;38.15;25.83;;;18.30;99.90;;;;;;5014715;28;20214;-76
2023/09/12 07:39:24;;;;;;;35.83;25.63;;;18.20;99.90;;;;;;4997607;28;20640;-77
2023/09/12 07:41:50;;;;;;;39.80;28.30;;;18.20;99.90;;;;;;4997029;28;20214;-78
2023/09/12 07:44:17;;;;;;;42.75;28.70;;;18.20;99.90;;;;;;5014450;28;20208;-77
2023/09/12 07:46:44;;;;;;;46.60;31.23;;;18.20;99.90;;;;;;4997120;28;20274;-78
2023/09/12 07:49:09;;;;;;;47.30;31.10;;;18.30;99.90;;;;;;4996842;28;20180;-77
2023/09/12 07:51:35;;;;;;;45.03;30.33;;;18.40;99.90;;;;;;5014128;28;20182;-76
2023/09/12 07:54:02;;;;;;;47.67;32.63;;;18.50;99.90;;;;;;4996826;28;20233;-76
2023/09/12 07:56:28;;;;;;;50.47;31.67;;;18.60;99.90;;;;;;4997370;28;20203;-77
2023/09/12 07:58:55;;;;;;;46.75;30.65;;;18.60;99.90;;;;;;5014818;28;20180;-78
2023/09/12 08:01:21;;;;;;;51.05;31.60;;;18.70;99.90;;;;;;4997112;28;20229;-78
2023/09/12 08:03:46;;;;;;;41.88;28.95;;;18.70;99.90;;;;;;5014183;28;20251;-77
2023/09/12 08:06:13;;;;;;;49.90;30.10;;;18.70;99.90;;;;;;4996803;28;20183;-77
2023/09/12 08:08:38;;;;;;;43.15;30.25;;;18.80;99.90;;;;;;5014893;28;20547;-80
2023/09/12 08:11:04;;;;;;;35.33;25.92;;;18.80;99.90;;;;;;4997965;28;20183;-80
2023/09/12 08:13:30;;;;;;;35.42;25.15;;;18.80;99.90;;;;;;4997882;28;20179;-80
2023/09/12 08:15:57;;;;;;;31.77;24.13;;;18.90;99.90;;;;;;4997388;28;20179;-80
2023/09/12 08:18:31;;;;;;;33.75;24.33;;;19.00;99.90;;;;;;5017136;28;20234;-80
2023/09/12 08:20:57;;;;;;;32.22;23.27;;;19.10;99.90;;;;;;4998074;28;20196;-81
2023/09/12 08:23:23;;;;;;;31.02;21.52;;;19.10;99.90;;;;;;5015281;28;20171;-81
2023/09/12 08:25:49;;;;;;;41.80;26.73;;;19.10;99.90;;;;;;5015345;28;20750;-81
2023/09/12 08:28:15;;;;;;;34.63;26.33;;;19.20;99.90;;;;;;4998360;28;20675;-81
2023/09/12 08:30:40;;;;;;;32.83;23.85;;;19.20;99.90;;;;;;4997834;28;20246;-81
2023/09/12 08:33:06;;;;;;;44.00;28.02;;;19.20;99.90;;;;;;5015402;28;20222;-80
2023/09/12 08:35:33;;;;;;;41.97;29.40;;;19.20;99.90;;;;;;4997629;28;20655;-81
2023/09/12 08:37:58;;;;;;;40.88;27.50;;;19.20;99.90;;;;;;4997539;28;20204;-81
2023/09/12 08:40:24;;;;;;;34.50;25.08;;;19.10;99.90;;;;;;5003311;28;20201;-80
2023/09/12 08:42:52;;;;;;;39.47;26.38;;;19.20;99.90;;;;;;4978070;28;20185;-80
2023/09/12 08:45:19;;;;;;;38.45;26.38;;;19.30;99.90;;;;;;4977947;28;20180;-80
2023/09/12 08:47:51;;;;;;;48.75;27.73;;;19.30;99.90;;;;;;4978595;28;20196;-80
2023/09/12 08:50:17;;;;;;;39.80;27.40;;;19.30;99.90;;;;;;4977819;28;20176;-81
2023/09/12 08:52:45;;;;;;;36.08;24.92;;;19.20;99.90;;;;;;4977991;28;20203;-81
2023/09/12 08:55:11;;;;;;;34.30;23.77;;;19.10;99.90;;;;;;4978928;28;20184;-81
2023/09/12 08:57:42;;;;;;;29.38;21.48;;;19.00;99.90;;;;;;4996040;28;20201;-81
2023/09/12 09:00:10;;;;;;;31.15;21.58;;;19.00;99.90;;;;;;4995815;28;20219;-80
2023/09/12 09:02:40;;;;;;;43.42;25.30;;;19.00;99.90;;;;;;4978239;28;20205;-77
2023/09/12 09:05:11;;;;;;;32.88;22.48;;;19.00;99.90;;;;;;4975922;28;20185;-76
2023/09/12 09:07:39;;;;;;;34.95;22.85;;;19.10;99.90;;;;;;4976390;28;20244;-76
2023/09/12 09:10:06;;;;;;;30.05;20.88;;;19.10;99.90;;;;;;4985413;28;20191;-77
2023/09/12 09:12:36;;;;;;;39.17;24.13;;;19.10;99.90;;;;;;4995772;28;20187;-77
2023/09/12 09:15:24;;;;;;;37.17;24.60;;;19.20;99.90;;;;;;4995800;28;20644;-77
2023/09/12 09:17:52;;;;;;;38.13;22.98;;;19.30;99.90;;;;;;5013228;28;20254;-77
2023/09/12 09:20:34;;;;;;;33.17;21.75;;;19.40;99.90;;;;;;4995552;28;20192;-76
2023/09/12 09:23:10;;;;;;;31.25;21.73;;;19.50;99.90;;;;;;4995648;28;20717;-77
2023/09/12 09:25:42;;;;;;;30.88;21.17;;;19.60;99.90;;;;;;4995708;28;20168;-77
2023/09/12 09:28:18;;;;;;;28.85;21.70;;;19.90;99.90;;;;;;5016980;28;20564;-77
2023/09/12 09:30:48;;;;;;;36.30;25.10;;;20.10;99.90;;;;;;5016697;28;20183;-77
2023/09/12 09:33:14;;;;;;;28.23;21.05;;;20.30;99.90;;;;;;4999510;28;20176;-77
2023/09/12 09:35:46;;;;;;;25.80;17.98;;;20.50;99.90;;;;;;5016947;28;20609;-77
2023/09/12 09:38:19;;;;;;;27.42;19.98;;;20.50;99.90;;;;;;5016851;28;20286;-76
2023/09/12 09:40:45;;;;;;;19.77;14.77;;;20.50;99.90;;;;;;4984630;28;20211;-78
2023/09/12 09:43:13;;;;;;;21.75;17.33;;;20.60;99.90;;;;;;4996434;28;20199;-77
2023/09/12 09:45:46;;;;;;;20.67;15.80;;;20.60;99.90;;;;;;4997178;28;20206;-77
2023/09/12 09:48:21;;;;;;;24.85;18.90;;;20.70;99.90;;;;;;4996018;28;20196;-77
2023/09/12 09:50:48;;;;;;;21.15;15.68;;;20.80;99.90;;;;;;4995856;28;20175;-77
2023/09/12 09:53:14;;;;;;;18.77;14.63;;;21.10;99.90;;;;;;4996133;28;20208;-76
2023/09/12 09:55:40;;;;;;;20.15;15.70;;;21.30;99.90;;;;;;4996806;28;20211;-76
2023/09/12 09:58:06;;;;;;;17.80;15.13;;;21.40;99.90;;;;;;4995222;28;20200;-76
2023/09/12 10:00:36;;;;;;;13.23;11.38;;;21.50;99.90;;;;;;4995211;28;20212;-76
2023/09/12 10:03:05;;;;;;;17.38;13.80;;;21.50;99.90;;;;;;4996291;28;20184;-75
2023/09/12 10:05:32;;;;;;;15.10;11.65;;;21.60;99.90;;;;;;4994797;28;20246;-76
2023/09/12 10:08:02;;;;;;;14.77;12.55;;;21.60;99.90;;;;;;4994918;28;20208;-76
2023/09/12 10:10:29;;;;;;;14.90;13.30;;;21.60;99.90;;;;;;4998045;28;20192;-76
2023/09/12 10:12:59;;;;;;;15.85;12.75;;;21.40;99.90;;;;;;5015727;28;20176;-76
2023/09/12 10:15:30;;;;;;;19.27;11.75;;;21.40;99.90;;;;;;5015995;28;20204;-76
2023/09/12 10:17:59;;;;;;;14.48;11.27;;;21.30;99.90;;;;;;4998167;28;20585;-76
2023/09/12 10:20:33;;;;;;;10.95;9.52;;;21.20;99.90;;;;;;4997649;28;20210;-75
2023/09/12 10:23:11;;;;;;;13.30;11.35;;;21.20;99.90;;;;;;5015892;28;20198;-76
2023/09/12 10:25:39;;;;;;;15.40;9.65;;;21.20;99.90;;;;;;4997829;28;20176;-76
2023/09/12 10:28:06;;;;;;;12.13;9.95;;;21.20;99.90;;;;;;4997781;28;20199;-76
2023/09/12 10:30:33;;;;;;;12.18;9.30;;;21.40;99.90;;;;;;4997751;28;20203;-76
2023/09/12 10:33:03;;;;;;;17.33;11.32;;;21.50;99.90;;;;;;5015368;28;20191;-75
2023/09/12 10:35:31;;;;;;;12.82;10.40;;;21.60;99.90;;;;;;4997746;28;20183;-75
2023/09/12 10:38:01;;;;;;;11.48;8.52;;;21.60;99.90;;;;;;4998101;28;20208;-76
2023/09/12 10:40:29;;;;;;;12.55;10.10;;;21.50;99.90;;;;;;5003182;28;20275;-76
2023/09/12 10:42:56;;;;;;;12.05;10.27;;;21.50;99.90;;;;;;5001270;28;20179;-76
2023/09/12 10:45:22;;;;;;;10.93;8.60;;;21.50;99.90;;;;;;5015516;28;20640;-76
2023/09/12 10:47:48;;;;;;;10.48;8.70;;;21.60;99.90;;;;;;4997501;28;20217;-76
2023/09/12 10:50:14;;;;;;;13.02;9.50;;;21.70;99.90;;;;;;4997513;28;20180;-76
2023/09/12 10:52:40;;;;;;;12.65;10.23;;;22.00;99.90;;;;;;4997517;28;20186;-76
2023/09/12 10:55:07;;;;;;;20.50;10.30;;;22.10;99.90;;;;;;4997932;28;20179;-75
2023/09/12 10:57:34;;;;;;;11.00;9.45;;;22.20;99.90;;;;;;5014963;28;20206;-75
2023/09/12 11:00:10;;;;;;;8.98;7.65;;;22.00;99.90;;;;;;4997318;28;20207;-76
2023/09/12 11:02:37;;;;;;;10.95;7.70;;;22.10;99.90;;;;;;4997569;28;20168;-77
2023/09/12 11:05:24;;;;;;;10.80;8.15;;;22.20;99.90;;;;;;5014773;28;20168;-77
2023/09/12 11:07:49;;;;;;;8.90;7.22;;;22.20;99.90;;;;;;4996564;28;20282;-76
2023/09/12 11:10:15;;;;;;;9.18;6.53;;;22.00;99.90;;;;;;5014966;28;20275;-77
2023/09/12 11:12:43;;;;;;;11.95;7.50;;;22.10;99.90;;;;;;5014855;28;20160;-76
2023/09/12 11:15:13;;;;;;;11.25;7.75;;;22.00;99.90;;;;;;4997172;28;20226;-76
2023/09/12 11:17:40;;;;;;;9.82;6.82;;;21.80;99.90;;;;;;5014779;28;20246;-76
2023/09/12 11:20:10;;;;;;;8.13;6.65;;;21.90;99.90;;;;;;4996631;28;20207;-76
2023/09/12 11:22:41;;;;;;;9.77;7.15;;;22.10;99.90;;;;;;5014764;28;20172;-76
2023/09/12 11:25:23;;;;;;;7.70;6.57;;;22.30;99.90;;;;;;5014929;28;20161;-76
2023/09/12 11:27:52;;;;;;;11.43;6.75;;;22.40;99.90;;;;;;5014789;28;20196;-76
2023/09/12 11:30:19;;;;;;;7.13;6.43;;;22.60;99.90;;;;;;4996717;28;20203;-76
2023/09/12 11:32:50;;;;;;;9.60;6.72;;;22.70;99.90;;;;;;4996666;28;20179;-76
2023/09/12 11:35:21;;;;;;;11.02;6.93;;;22.80;99.90;;;;;;5014180;28;20179;-76
2023/09/12 11:37:58;;;;;;;6.72;5.18;;;22.70;99.90;;;;;;5014510;28;20234;-75
2023/09/12 11:40:34;;;;;;;7.78;5.28;;;22.80;99.90;;;;;;4996069;28;20203;-77
2023/09/12 11:43:00;;;;;;;7.03;6.10;;;23.10;99.90;;;;;;4996821;28;20172;-76
2023/09/12 11:45:27;;;;;;;10.77;5.18;;;23.30;99.90;;;;;;5014469;28;20160;-76
2023/09/12 11:47:55;;;;;;;8.23;5.43;;;23.40;99.90;;;;;;4996507;28;20695;-76
2023/09/12 11:50:36;;;;;;;5.50;4.25;;;23.40;99.90;;;;;;5014771;28;20187;-76
2023/09/12 11:53:07;;;;;;;7.80;5.03;;;23.00;99.90;;;;;;4996713;28;20218;-76
2023/09/12 11:55:59;;;;;;;5.13;4.28;;;23.00;99.90;;;;;;4996658;28;20270;-77
2023/09/12 11:58:27;;;;;;;5.45;4.13;;;22.90;99.90;;;;;;5014227;28;20179;-76
2023/09/12 12:00:57;;;;;;;4.95;3.95;;;23.10;99.90;;;;;;5014398;28;20215;-75
2023/09/12 12:03:24;;;;;;;5.10;3.85;;;23.40;99.90;;;;;;4996446;28;20175;-75
2023/09/12 12:05:51;;;;;;;7.78;3.67;;;23.70;99.90;;;;;;5013968;28;20175;-76
2023/09/12 12:08:18;;;;;;;4.18;3.75;;;23.50;99.90;;;;;;5013879;28;20199;-77
2023/09/12 12:10:43;;;;;;;4.00;3.13;;;23.50;99.90;;;;;;4996698;28;20195;-77
2023/09/12 12:13:19;;;;;;;3.70;3.10;;;23.70;99.90;;;;;;4998369;28;20176;-76
2023/09/12 12:15:46;;;;;;;6.40;3.10;;;24.00;99.90;;;;;;5015106;28;20163;-77
2023/09/12 12:18:12;;;;;;;3.85;3.05;;;24.40;99.90;;;;;;4997248;28;20577;-77
2023/09/12 12:20:37;;;;;;;2.97;2.78;;;24.30;99.90;;;;;;5013855;28;20230;-76
2023/09/12 12:23:03;;;;;;;3.20;2.83;;;24.50;99.90;;;;;;5014031;28;20222;-75
2023/09/12 12:25:34;;;;;;;4.25;3.00;;;24.60;99.90;;;;;;4996581;28;20192;-76
2023/09/12 12:28:02;;;;;;;4.47;2.63;;;24.70;99.90;;;;;;4996258;28;20566;-76
2023/09/12 12:30:31;;;;;;;5.07;3.03;;;24.90;99.90;;;;;;5013584;28;20191;-76
2023/09/12 12:32:56;;;;;;;3.67;2.67;;;25.10;99.90;;;;;;4996296;28;20620;-77
2023/09/12 12:35:23;;;;;;;3.22;2.92;;;25.10;99.90;;;;;;5013603;28;20206;-77